Jolley, Iowa
Current Conditions -  °F | °C
As of 7:35 PM on Monday 20 Oct 2014 (Local Time) from KSLB Reporting Station
Haze Haze  
Wind Chill: 14°   Ceiling: Unl
Heat Index: 14°   Visibility: 6mi
Dew Point:   Wind: 6mph
Humidity: 48%   Direction: 310°NW
Pressure: 30.05"   Gusts: NA
Location:  42.48°N, 94.72°W
Report Text: KSLB 210035Z AUTO 31005KT 6SM HZ CLR 14/03 A3005 RMK AO2
Loading
Personal Weather Stations






























Interactive Weather Map
Tropical Storm Tracking
New forecast layout! Learn more

10-Day Weather Forecast

Advertisements
Track Severe Weather on mobile